sensor_id;sensor_type;location;lat;lon;timestamp;P1;durP1;ratioP1;P2;durP2;ratioP2
16294;SDS011;8255;49.560;8.244;2022-08-03T00:00:51;4.85;;;2.20;;
16294;SDS011;8255;49.560;8.244;2022-08-03T00:03:18;2.92;;;1.90;;
16294;SDS011;8255;49.560;8.244;2022-08-03T00:05:44;5.32;;;2.10;;
16294;SDS011;8255;49.560;8.244;2022-08-03T00:08:10;2.00;;;1.95;;
16294;SDS011;8255;49.560;8.244;2022-08-03T00:10:37;2.15;;;1.80;;
16294;SDS011;8255;49.560;8.244;2022-08-03T00:13:04;2.10;;;2.00;;
16294;SDS011;8255;49.560;8.244;2022-08-03T00:15:31;2.10;;;1.88;;
16294;SDS011;8255;49.560;8.244;2022-08-03T00:17:57;3.17;;;2.20;;
16294;SDS011;8255;49.560;8.244;2022-08-03T00:20:24;1.77;;;1.75;;
16294;SDS011;8255;49.560;8.244;2022-08-03T00:22:50;3.30;;;2.30;;
16294;SDS011;8255;49.560;8.244;2022-08-03T00:25:16;2.25;;;2.08;;
16294;SDS011;8255;49.560;8.244;2022-08-03T00:27:43;2.50;;;2.20;;
16294;SDS011;8255;49.560;8.244;2022-08-03T00:30:11;1.83;;;1.73;;
16294;SDS011;8255;49.560;8.244;2022-08-03T00:32:37;2.65;;;2.10;;
16294;SDS011;8255;49.560;8.244;2022-08-03T00:35:04;2.40;;;2.30;;
16294;SDS011;8255;49.560;8.244;2022-08-03T00:37:31;2.28;;;2.08;;
16294;SDS011;8255;49.560;8.244;2022-08-03T00:39:57;2.03;;;1.92;;
16294;SDS011;8255;49.560;8.244;2022-08-03T00:42:24;2.15;;;2.05;;
16294;SDS011;8255;49.560;8.244;2022-08-03T00:44:50;2.10;;;2.00;;
16294;SDS011;8255;49.560;8.244;2022-08-03T00:47:18;2.33;;;2.20;;
16294;SDS011;8255;49.560;8.244;2022-08-03T00:49:44;2.00;;;1.90;;
16294;SDS011;8255;49.560;8.244;2022-08-03T00:52:10;1.67;;;1.67;;
16294;SDS011;8255;49.560;8.244;2022-08-03T00:54:38;2.10;;;2.00;;
16294;SDS011;8255;49.560;8.244;2022-08-03T00:57:05;4.18;;;2.10;;
16294;SDS011;8255;49.560;8.244;2022-08-03T00:59:31;2.38;;;2.17;;
16294;SDS011;8255;49.560;8.244;2022-08-03T01:01:58;3.20;;;2.13;;
16294;SDS011;8255;49.560;8.244;2022-08-03T01:04:26;2.55;;;2.42;;
16294;SDS011;8255;49.560;8.244;2022-08-03T01:06:55;3.17;;;2.00;;
16294;SDS011;8255;49.560;8.244;2022-08-03T01:09:25;2.42;;;1.85;;
16294;SDS011;8255;49.560;8.244;2022-08-03T01:11:58;2.20;;;2.00;;
16294;SDS011;8255;49.560;8.244;2022-08-03T01:14:30;1.90;;;1.90;;
16294;SDS011;8255;49.560;8.244;2022-08-03T01:16:58;2.30;;;2.10;;
16294;SDS011;8255;49.560;8.244;2022-08-03T01:19:44;2.20;;;2.10;;
16294;SDS011;8255;49.560;8.244;2022-08-03T01:22:23;2.40;;;2.30;;
16294;SDS011;8255;49.560;8.244;2022-08-03T01:24:58;2.17;;;2.08;;
16294;SDS011;8255;49.560;8.244;2022-08-03T01:27:28;2.35;;;2.25;;
16294;SDS011;8255;49.560;8.244;2022-08-03T01:29:59;2.00;;;1.90;;
16294;SDS011;8255;49.560;8.244;2022-08-03T01:32:29;3.10;;;2.17;;
16294;SDS011;8255;49.560;8.244;2022-08-03T01:34:58;2.22;;;1.90;;
16294;SDS011;8255;49.560;8.244;2022-08-03T01:37:25;1.80;;;1.80;;
16294;SDS011;8255;49.560;8.244;2022-08-03T01:39:53;2.10;;;2.00;;
16294;SDS011;8255;49.560;8.244;2022-08-03T01:42:21;2.10;;;2.00;;
16294;SDS011;8255;49.560;8.244;2022-08-03T01:44:49;2.25;;;2.08;;
16294;SDS011;8255;49.560;8.244;2022-08-03T01:47:19;2.13;;;2.03;;
16294;SDS011;8255;49.560;8.244;2022-08-03T01:49:46;2.75;;;2.22;;
16294;SDS011;8255;49.560;8.244;2022-08-03T01:52:14;2.20;;;2.10;;
16294;SDS011;8255;49.560;8.244;2022-08-03T01:54:43;2.35;;;2.25;;
16294;SDS011;8255;49.560;8.244;2022-08-03T01:57:10;2.83;;;2.63;;
16294;SDS011;8255;49.560;8.244;2022-08-03T01:59:36;2.53;;;2.42;;
16294;SDS011;8255;49.560;8.244;2022-08-03T02:02:03;2.65;;;2.55;;
16294;SDS011;8255;49.560;8.244;2022-08-03T02:04:31;2.88;;;2.75;;
16294;SDS011;8255;49.560;8.244;2022-08-03T02:06:58;3.20;;;2.95;;
16294;SDS011;8255;49.560;8.244;2022-08-03T02:09:26;3.28;;;3.08;;
16294;SDS011;8255;49.560;8.244;2022-08-03T02:11:52;4.00;;;3.70;;
16294;SDS011;8255;49.560;8.244;2022-08-03T02:14:20;4.10;;;3.90;;
16294;SDS011;8255;49.560;8.244;2022-08-03T02:16:47;3.85;;;3.55;;
16294;SDS011;8255;49.560;8.244;2022-08-03T02:19:14;6.55;;;4.03;;
16294;SDS011;8255;49.560;8.244;2022-08-03T02:21:43;4.30;;;4.00;;
16294;SDS011;8255;49.560;8.244;2022-08-03T02:24:10;3.95;;;3.70;;
16294;SDS011;8255;49.560;8.244;2022-08-03T02:26:37;3.70;;;3.45;;
16294;SDS011;8255;49.560;8.244;2022-08-03T02:29:04;4.15;;;3.85;;
16294;SDS011;8255;49.560;8.244;2022-08-03T02:31:33;3.88;;;3.58;;
16294;SDS011;8255;49.560;8.244;2022-08-03T02:34:02;4.88;;;4.05;;
16294;SDS011;8255;49.560;8.244;2022-08-03T02:36:29;3.83;;;3.53;;
16294;SDS011;8255;49.560;8.244;2022-08-03T02:38:59;3.83;;;3.47;;
16294;SDS011;8255;49.560;8.244;2022-08-03T02:41:26;5.10;;;3.65;;
16294;SDS011;8255;49.560;8.244;2022-08-03T02:43:54;4.03;;;3.70;;
16294;SDS011;8255;49.560;8.244;2022-08-03T02:46:22;4.07;;;3.78;;
16294;SDS011;8255;49.560;8.244;2022-08-03T02:48:49;5.13;;;3.58;;
16294;SDS011;8255;49.560;8.244;2022-08-03T02:51:17;3.95;;;3.40;;
16294;SDS011;8255;49.560;8.244;2022-08-03T02:53:44;4.25;;;3.85;;
16294;SDS011;8255;49.560;8.244;2022-08-03T02:56:12;3.83;;;3.40;;
16294;SDS011;8255;49.560;8.244;2022-08-03T02:58:39;4.03;;;3.72;;
16294;SDS011;8255;49.560;8.244;2022-08-03T03:01:07;3.83;;;3.50;;
16294;SDS011;8255;49.560;8.244;2022-08-03T03:03:34;3.85;;;3.55;;
16294;SDS011;8255;49.560;8.244;2022-08-03T03:06:01;5.25;;;3.70;;
16294;SDS011;8255;49.560;8.244;2022-08-03T03:08:27;3.42;;;3.22;;
16294;SDS011;8255;49.560;8.244;2022-08-03T03:10:55;3.88;;;3.67;;
16294;SDS011;8255;49.560;8.244;2022-08-03T03:13:23;3.70;;;3.40;;
16294;SDS011;8255;49.560;8.244;2022-08-03T03:15:50;3.88;;;3.58;;
16294;SDS011;8255;49.560;8.244;2022-08-03T03:18:17;3.67;;;3.38;;
16294;SDS011;8255;49.560;8.244;2022-08-03T03:20:44;4.13;;;3.72;;
16294;SDS011;8255;49.560;8.244;2022-08-03T03:23:10;3.55;;;3.25;;
16294;SDS011;8255;49.560;8.244;2022-08-03T03:25:38;3.75;;;3.47;;
16294;SDS011;8255;49.560;8.244;2022-08-03T03:28:05;3.65;;;3.35;;
16294;SDS011;8255;49.560;8.244;2022-08-03T03:30:33;3.63;;;3.42;;
16294;SDS011;8255;49.560;8.244;2022-08-03T03:32:59;3.65;;;3.28;;
16294;SDS011;8255;49.560;8.244;2022-08-03T03:35:27;4.78;;;3.47;;
16294;SDS011;8255;49.560;8.244;2022-08-03T03:37:53;3.42;;;3.22;;
16294;SDS011;8255;49.560;8.244;2022-08-03T03:40:20;4.05;;;3.20;;
16294;SDS011;8255;49.560;8.244;2022-08-03T03:42:46;3.80;;;3.37;;
16294;SDS011;8255;49.560;8.244;2022-08-03T03:45:13;3.40;;;3.15;;
16294;SDS011;8255;49.560;8.244;2022-08-03T03:47:41;4.65;;;3.60;;
16294;SDS011;8255;49.560;8.244;2022-08-03T03:50:07;3.20;;;3.08;;
16294;SDS011;8255;49.560;8.244;2022-08-03T03:52:35;3.50;;;3.30;;
16294;SDS011;8255;49.560;8.244;2022-08-03T03:55:01;6.93;;;3.83;;
16294;SDS011;8255;49.560;8.244;2022-08-03T03:57:28;3.58;;;3.28;;
16294;SDS011;8255;49.560;8.244;2022-08-03T03:59:54;4.38;;;3.25;;
16294;SDS011;8255;49.560;8.244;2022-08-03T04:02:21;3.60;;;3.30;;
16294;SDS011;8255;49.560;8.244;2022-08-03T04:04:48;3.63;;;3.38;;
16294;SDS011;8255;49.560;8.244;2022-08-03T04:07:35;4.38;;;3.80;;
16294;SDS011;8255;49.560;8.244;2022-08-03T04:10:22;4.05;;;3.50;;
16294;SDS011;8255;49.560;8.244;2022-08-03T04:13:19;4.95;;;3.47;;
16294;SDS011;8255;49.560;8.244;2022-08-03T04:15:46;5.85;;;3.80;;
16294;SDS011;8255;49.560;8.244;2022-08-03T04:18:13;4.72;;;3.60;;
16294;SDS011;8255;49.560;8.244;2022-08-03T04:20:43;5.72;;;4.40;;
16294;SDS011;8255;49.560;8.244;2022-08-03T04:23:10;4.93;;;4.03;;
16294;SDS011;8255;49.560;8.244;2022-08-03T04:25:38;4.28;;;3.60;;
16294;SDS011;8255;49.560;8.244;2022-08-03T04:28:05;4.00;;;3.70;;
16294;SDS011;8255;49.560;8.244;2022-08-03T04:30:33;4.05;;;3.75;;
16294;SDS011;8255;49.560;8.244;2022-08-03T04:33:01;4.30;;;4.00;;
16294;SDS011;8255;49.560;8.244;2022-08-03T04:35:28;3.95;;;3.65;;
16294;SDS011;8255;49.560;8.244;2022-08-03T04:37:58;3.85;;;3.65;;
16294;SDS011;8255;49.560;8.244;2022-08-03T04:40:26;4.82;;;4.32;;
16294;SDS011;8255;49.560;8.244;2022-08-03T04:42:53;4.45;;;4.03;;
16294;SDS011;8255;49.560;8.244;2022-08-03T04:45:20;4.63;;;4.28;;
16294;SDS011;8255;49.560;8.244;2022-08-03T04:47:47;4.60;;;4.20;;
16294;SDS011;8255;49.560;8.244;2022-08-03T04:50:14;5.43;;;4.57;;
16294;SDS011;8255;49.560;8.244;2022-08-03T04:52:40;4.65;;;4.10;;
16294;SDS011;8255;49.560;8.244;2022-08-03T04:55:08;4.60;;;4.20;;
16294;SDS011;8255;49.560;8.244;2022-08-03T04:57:35;4.15;;;3.85;;
16294;SDS011;8255;49.560;8.244;2022-08-03T05:00:02;4.97;;;4.15;;
16294;SDS011;8255;49.560;8.244;2022-08-03T05:02:29;5.38;;;4.35;;
16294;SDS011;8255;49.560;8.244;2022-08-03T05:04:55;6.68;;;3.90;;
16294;SDS011;8255;49.560;8.244;2022-08-03T05:07:22;7.93;;;3.88;;
16294;SDS011;8255;49.560;8.244;2022-08-03T05:09:48;4.28;;;3.88;;
16294;SDS011;8255;49.560;8.244;2022-08-03T05:12:16;4.78;;;4.00;;
16294;SDS011;8255;49.560;8.244;2022-08-03T05:14:42;6.47;;;3.97;;
16294;SDS011;8255;49.560;8.244;2022-08-03T05:17:08;4.63;;;4.22;;
16294;SDS011;8255;49.560;8.244;2022-08-03T05:19:35;6.03;;;4.28;;
16294;SDS011;8255;49.560;8.244;2022-08-03T05:22:01;3.70;;;3.47;;
16294;SDS011;8255;49.560;8.244;2022-08-03T05:24:28;5.32;;;4.18;;
16294;SDS011;8255;49.560;8.244;2022-08-03T05:26:54;4.53;;;4.13;;
16294;SDS011;8255;49.560;8.244;2022-08-03T05:29:22;6.00;;;3.75;;
16294;SDS011;8255;49.560;8.244;2022-08-03T05:31:48;4.38;;;4.03;;
16294;SDS011;8255;49.560;8.244;2022-08-03T05:34:15;4.00;;;3.72;;
16294;SDS011;8255;49.560;8.244;2022-08-03T05:36:41;4.18;;;3.88;;
16294;SDS011;8255;49.560;8.244;2022-08-03T05:39:07;8.05;;;3.92;;
16294;SDS011;8255;49.560;8.244;2022-08-03T05:41:34;4.82;;;3.67;;
16294;SDS011;8255;49.560;8.244;2022-08-03T05:44:00;4.60;;;3.70;;
16294;SDS011;8255;49.560;8.244;2022-08-03T05:46:28;6.03;;;3.50;;
16294;SDS011;8255;49.560;8.244;2022-08-03T05:48:54;5.25;;;3.30;;
16294;SDS011;8255;49.560;8.244;2022-08-03T05:51:21;5.57;;;3.45;;
16294;SDS011;8255;49.560;8.244;2022-08-03T05:53:47;3.13;;;2.92;;
16294;SDS011;8255;49.560;8.244;2022-08-03T05:56:13;5.70;;;2.90;;
16294;SDS011;8255;49.560;8.244;2022-08-03T05:58:40;4.45;;;3.03;;
16294;SDS011;8255;49.560;8.244;2022-08-03T06:01:06;3.45;;;3.25;;
16294;SDS011;8255;49.560;8.244;2022-08-03T06:03:34;5.72;;;2.95;;
16294;SDS011;8255;49.560;8.244;2022-08-03T06:06:00;2.90;;;2.70;;
16294;SDS011;8255;49.560;8.244;2022-08-03T06:08:27;3.55;;;2.65;;
16294;SDS011;8255;49.560;8.244;2022-08-03T06:10:53;2.50;;;2.40;;
16294;SDS011;8255;49.560;8.244;2022-08-03T06:13:20;2.67;;;2.42;;
16294;SDS011;8255;49.560;8.244;2022-08-03T06:15:46;2.67;;;2.40;;
16294;SDS011;8255;49.560;8.244;2022-08-03T06:18:12;2.45;;;2.15;;
16294;SDS011;8255;49.560;8.244;2022-08-03T06:20:40;3.45;;;2.70;;
16294;SDS011;8255;49.560;8.244;2022-08-03T06:23:07;5.07;;;2.75;;
16294;SDS011;8255;49.560;8.244;2022-08-03T06:25:33;2.80;;;2.55;;
16294;SDS011;8255;49.560;8.244;2022-08-03T06:27:59;4.03;;;2.40;;
16294;SDS011;8255;49.560;8.244;2022-08-03T06:30:26;4.22;;;2.70;;
16294;SDS011;8255;49.560;8.244;2022-08-03T06:32:52;3.47;;;2.65;;
16294;SDS011;8255;49.560;8.244;2022-08-03T06:35:19;3.25;;;2.75;;
16294;SDS011;8255;49.560;8.244;2022-08-03T06:37:47;3.70;;;2.80;;
16294;SDS011;8255;49.560;8.244;2022-08-03T06:40:16;2.95;;;2.65;;
16294;SDS011;8255;49.560;8.244;2022-08-03T06:42:43;3.80;;;2.42;;
16294;SDS011;8255;49.560;8.244;2022-08-03T06:45:09;4.82;;;2.47;;
16294;SDS011;8255;49.560;8.244;2022-08-03T06:47:36;2.53;;;2.20;;
16294;SDS011;8255;49.560;8.244;2022-08-03T06:50:03;2.33;;;2.15;;
16294;SDS011;8255;49.560;8.244;2022-08-03T06:52:30;9.32;;;2.60;;
16294;SDS011;8255;49.560;8.244;2022-08-03T06:54:58;2.80;;;1.90;;
16294;SDS011;8255;49.560;8.244;2022-08-03T06:57:24;2.50;;;2.30;;
16294;SDS011;8255;49.560;8.244;2022-08-03T06:59:50;3.08;;;2.30;;
16294;SDS011;8255;49.560;8.244;2022-08-03T07:02:17;3.63;;;2.13;;
16294;SDS011;8255;49.560;8.244;2022-08-03T07:04:44;2.05;;;1.92;;
16294;SDS011;8255;49.560;8.244;2022-08-03T07:07:10;2.17;;;2.08;;
16294;SDS011;8255;49.560;8.244;2022-08-03T07:09:37;2.17;;;2.08;;
16294;SDS011;8255;49.560;8.244;2022-08-03T07:12:05;2.83;;;2.20;;
16294;SDS011;8255;49.560;8.244;2022-08-03T07:14:31;2.10;;;2.00;;
16294;SDS011;8255;49.560;8.244;2022-08-03T07:16:57;3.17;;;2.35;;
16294;SDS011;8255;49.560;8.244;2022-08-03T07:19:24;4.20;;;2.10;;
16294;SDS011;8255;49.560;8.244;2022-08-03T07:21:50;2.10;;;1.98;;
16294;SDS011;8255;49.560;8.244;2022-08-03T07:24:16;4.10;;;2.08;;
16294;SDS011;8255;49.560;8.244;2022-08-03T07:26:43;2.28;;;2.17;;
16294;SDS011;8255;49.560;8.244;2022-08-03T07:29:11;2.50;;;2.30;;
16294;SDS011;8255;49.560;8.244;2022-08-03T07:31:37;2.08;;;1.98;;
16294;SDS011;8255;49.560;8.244;2022-08-03T07:34:04;2.15;;;2.05;;
16294;SDS011;8255;49.560;8.244;2022-08-03T07:36:30;6.18;;;2.15;;
16294;SDS011;8255;49.560;8.244;2022-08-03T07:38:57;2.20;;;2.10;;
16294;SDS011;8255;49.560;8.244;2022-08-03T07:41:23;2.28;;;2.15;;
16294;SDS011;8255;49.560;8.244;2022-08-03T07:43:50;2.83;;;1.90;;
16294;SDS011;8255;49.560;8.244;2022-08-03T07:46:17;1.92;;;1.90;;
16294;SDS011;8255;49.560;8.244;2022-08-03T07:48:44;2.03;;;1.98;;
16294;SDS011;8255;49.560;8.244;2022-08-03T07:51:10;2.20;;;2.00;;
16294;SDS011;8255;49.560;8.244;2022-08-03T07:53:36;3.80;;;2.00;;
16294;SDS011;8255;49.560;8.244;2022-08-03T07:56:03;5.88;;;2.20;;
16294;SDS011;8255;49.560;8.244;2022-08-03T07:58:29;1.80;;;1.70;;
16294;SDS011;8255;49.560;8.244;2022-08-03T08:00:56;2.38;;;2.00;;
16294;SDS011;8255;49.560;8.244;2022-08-03T08:03:23;2.03;;;1.85;;
16294;SDS011;8255;49.560;8.244;2022-08-03T08:05:50;2.78;;;2.00;;
16294;SDS011;8255;49.560;8.244;2022-08-03T08:08:17;2.20;;;2.10;;
16294;SDS011;8255;49.560;8.244;2022-08-03T08:10:44;2.20;;;2.10;;
16294;SDS011;8255;49.560;8.244;2022-08-03T08:13:10;2.50;;;2.28;;
16294;SDS011;8255;49.560;8.244;2022-08-03T08:15:37;1.90;;;1.80;;
16294;SDS011;8255;49.560;8.244;2022-08-03T08:18:03;2.10;;;2.00;;
16294;SDS011;8255;49.560;8.244;2022-08-03T08:20:31;2.92;;;2.00;;
16294;SDS011;8255;49.560;8.244;2022-08-03T08:22:58;2.20;;;2.10;;
16294;SDS011;8255;49.560;8.244;2022-08-03T08:25:25;2.00;;;1.90;;
16294;SDS011;8255;49.560;8.244;2022-08-03T08:27:52;2.35;;;2.22;;
16294;SDS011;8255;49.560;8.244;2022-08-03T08:30:19;2.60;;;2.40;;
16294;SDS011;8255;49.560;8.244;2022-08-03T08:32:45;2.58;;;2.10;;
16294;SDS011;8255;49.560;8.244;2022-08-03T08:35:12;1.90;;;1.80;;
16294;SDS011;8255;49.560;8.244;2022-08-03T08:37:40;2.28;;;2.00;;
16294;SDS011;8255;49.560;8.244;2022-08-03T08:40:07;1.90;;;1.80;;
16294;SDS011;8255;49.560;8.244;2022-08-03T08:42:36;2.33;;;2.10;;
16294;SDS011;8255;49.560;8.244;2022-08-03T08:45:03;2.08;;;1.73;;
16294;SDS011;8255;49.560;8.244;2022-08-03T08:47:30;2.92;;;1.92;;
16294;SDS011;8255;49.560;8.244;2022-08-03T08:49:57;2.00;;;1.90;;
16294;SDS011;8255;49.560;8.244;2022-08-03T08:52:25;2.25;;;2.15;;
16294;SDS011;8255;49.560;8.244;2022-08-03T08:54:54;1.85;;;1.75;;
16294;SDS011;8255;49.560;8.244;2022-08-03T08:57:22;3.47;;;1.90;;
16294;SDS011;8255;49.560;8.244;2022-08-03T08:59:49;1.98;;;1.90;;
16294;SDS011;8255;49.560;8.244;2022-08-03T09:02:16;4.22;;;1.90;;
16294;SDS011;8255;49.560;8.244;2022-08-03T09:04:42;1.90;;;1.80;;
16294;SDS011;8255;49.560;8.244;2022-08-03T09:07:09;2.15;;;2.05;;
16294;SDS011;8255;49.560;8.244;2022-08-03T09:09:36;1.80;;;1.70;;
16294;SDS011;8255;49.560;8.244;2022-08-03T09:12:04;2.22;;;2.05;;
16294;SDS011;8255;49.560;8.244;2022-08-03T09:14:30;2.00;;;1.90;;
16294;SDS011;8255;49.560;8.244;2022-08-03T09:16:58;2.25;;;1.70;;
16294;SDS011;8255;49.560;8.244;2022-08-03T09:19:26;2.20;;;2.10;;
16294;SDS011;8255;49.560;8.244;2022-08-03T09:22:07;2.10;;;2.00;;
16294;SDS011;8255;49.560;8.244;2022-08-03T09:24:33;1.95;;;1.80;;
16294;SDS011;8255;49.560;8.244;2022-08-03T09:27:00;4.25;;;2.20;;
16294;SDS011;8255;49.560;8.244;2022-08-03T09:29:27;2.35;;;2.15;;
16294;SDS011;8255;49.560;8.244;2022-08-03T09:31:58;3.15;;;1.90;;
16294;SDS011;8255;49.560;8.244;2022-08-03T09:34:25;1.70;;;1.70;;
16294;SDS011;8255;49.560;8.244;2022-08-03T09:36:52;2.00;;;1.90;;
16294;SDS011;8255;49.560;8.244;2022-08-03T09:39:20;2.25;;;1.90;;
16294;SDS011;8255;49.560;8.244;2022-08-03T09:41:47;1.98;;;1.88;;
16294;SDS011;8255;49.560;8.244;2022-08-03T09:44:14;1.77;;;1.75;;
16294;SDS011;8255;49.560;8.244;2022-08-03T09:46:49;2.17;;;1.80;;
16294;SDS011;8255;49.560;8.244;2022-08-03T09:49:16;1.92;;;1.83;;
16294;SDS011;8255;49.560;8.244;2022-08-03T09:51:43;2.40;;;1.80;;
16294;SDS011;8255;49.560;8.244;2022-08-03T09:54:09;1.85;;;1.70;;
16294;SDS011;8255;49.560;8.244;2022-08-03T09:56:36;1.98;;;1.88;;
16294;SDS011;8255;49.560;8.244;2022-08-03T09:59:03;1.63;;;1.63;;
16294;SDS011;8255;49.560;8.244;2022-08-03T10:01:31;1.70;;;1.70;;
16294;SDS011;8255;49.560;8.244;2022-08-03T10:03:59;1.70;;;1.70;;
16294;SDS011;8255;49.560;8.244;2022-08-03T10:06:25;2.00;;;1.90;;
16294;SDS011;8255;49.560;8.244;2022-08-03T10:09:03;2.10;;;2.00;;
16294;SDS011;8255;49.560;8.244;2022-08-03T10:11:31;2.03;;;1.92;;
16294;SDS011;8255;49.560;8.244;2022-08-03T10:13:59;1.90;;;1.70;;
16294;SDS011;8255;49.560;8.244;2022-08-03T10:16:25;1.77;;;1.77;;
16294;SDS011;8255;49.560;8.244;2022-08-03T10:18:52;1.92;;;1.83;;
16294;SDS011;8255;49.560;8.244;2022-08-03T10:21:22;1.92;;;1.83;;
16294;SDS011;8255;49.560;8.244;2022-08-03T10:23:48;2.05;;;1.95;;
16294;SDS011;8255;49.560;8.244;2022-08-03T10:26:16;2.15;;;1.90;;
16294;SDS011;8255;49.560;8.244;2022-08-03T10:28:46;1.90;;;1.80;;
16294;SDS011;8255;49.560;8.244;2022-08-03T10:31:13;2.35;;;1.90;;
16294;SDS011;8255;49.560;8.244;2022-08-03T10:33:42;2.15;;;1.90;;
16294;SDS011;8255;49.560;8.244;2022-08-03T10:36:09;2.30;;;2.10;;
16294;SDS011;8255;49.560;8.244;2022-08-03T10:38:39;2.22;;;2.13;;
16294;SDS011;8255;49.560;8.244;2022-08-03T10:41:10;2.20;;;2.10;;
16294;SDS011;8255;49.560;8.244;2022-08-03T10:43:39;2.30;;;2.10;;
16294;SDS011;8255;49.560;8.244;2022-08-03T10:46:07;1.90;;;1.90;;
16294;SDS011;8255;49.560;8.244;2022-08-03T10:48:33;2.50;;;2.30;;
16294;SDS011;8255;49.560;8.244;2022-08-03T10:51:00;2.35;;;2.15;;
16294;SDS011;8255;49.560;8.244;2022-08-03T10:53:33;2.25;;;2.15;;
16294;SDS011;8255;49.560;8.244;2022-08-03T10:56:02;2.42;;;2.00;;
16294;SDS011;8255;49.560;8.244;2022-08-03T10:58:54;2.47;;;2.03;;
16294;SDS011;8255;49.560;8.244;2022-08-03T11:04:15;3.63;;;2.10;;
16294;SDS011;8255;49.560;8.244;2022-08-03T11:06:42;2.10;;;2.00;;
16294;SDS011;8255;49.560;8.244;2022-08-03T11:09:16;2.20;;;2.00;;
16294;SDS011;8255;49.560;8.244;2022-08-03T11:11:45;2.28;;;2.10;;
16294;SDS011;8255;49.560;8.244;2022-08-03T11:14:12;1.88;;;1.77;;
16294;SDS011;8255;49.560;8.244;2022-08-03T11:16:39;2.10;;;2.00;;
16294;SDS011;8255;49.560;8.244;2022-08-03T11:19:07;2.92;;;2.17;;
16294;SDS011;8255;49.560;8.244;2022-08-03T11:27:18;2.72;;;2.20;;
16294;SDS011;8255;49.560;8.244;2022-08-03T11:29:52;2.10;;;1.90;;
16294;SDS011;8255;49.560;8.244;2022-08-03T11:35:07;2.33;;;2.20;;
16294;SDS011;8255;49.560;8.244;2022-08-03T11:37:33;2.22;;;2.00;;
16294;SDS011;8255;49.560;8.244;2022-08-03T11:40:00;2.25;;;2.05;;
16294;SDS011;8255;49.560;8.244;2022-08-03T11:42:40;2.00;;;1.90;;
16294;SDS011;8255;49.560;8.244;2022-08-03T11:45:09;2.10;;;2.00;;
16294;SDS011;8255;49.560;8.244;2022-08-03T11:47:36;2.38;;;2.15;;
16294;SDS011;8255;49.560;8.244;2022-08-03T11:50:03;2.20;;;2.10;;
16294;SDS011;8255;49.560;8.244;2022-08-03T11:52:33;2.30;;;2.20;;
16294;SDS011;8255;49.560;8.244;2022-08-03T11:54:59;7.05;;;2.67;;
16294;SDS011;8255;49.560;8.244;2022-08-03T11:57:27;1.85;;;1.75;;
16294;SDS011;8255;49.560;8.244;2022-08-03T11:59:55;1.80;;;1.80;;
16294;SDS011;8255;49.560;8.244;2022-08-03T12:02:21;2.08;;;1.98;;
16294;SDS011;8255;49.560;8.244;2022-08-03T12:04:48;1.90;;;1.80;;
16294;SDS011;8255;49.560;8.244;2022-08-03T12:07:14;2.33;;;1.98;;
16294;SDS011;8255;49.560;8.244;2022-08-03T12:09:41;2.10;;;1.90;;
16294;SDS011;8255;49.560;8.244;2022-08-03T12:12:08;2.25;;;2.05;;
16294;SDS011;8255;49.560;8.244;2022-08-03T12:14:34;2.10;;;2.00;;
16294;SDS011;8255;49.560;8.244;2022-08-03T12:17:02;1.70;;;1.70;;
16294;SDS011;8255;49.560;8.244;2022-08-03T12:19:40;4.68;;;2.05;;
16294;SDS011;8255;49.560;8.244;2022-08-03T12:22:06;2.20;;;2.10;;
16294;SDS011;8255;49.560;8.244;2022-08-03T12:24:38;2.33;;;2.10;;
16294;SDS011;8255;49.560;8.244;2022-08-03T12:27:05;2.00;;;1.88;;
16294;SDS011;8255;49.560;8.244;2022-08-03T12:29:31;1.92;;;1.83;;
16294;SDS011;8255;49.560;8.244;2022-08-03T12:31:58;2.53;;;2.33;;
16294;SDS011;8255;49.560;8.244;2022-08-03T12:37:07;1.60;;;1.60;;
16294;SDS011;8255;49.560;8.244;2022-08-03T12:39:33;1.75;;;1.67;;
16294;SDS011;8255;49.560;8.244;2022-08-03T12:42:00;1.90;;;1.80;;
16294;SDS011;8255;49.560;8.244;2022-08-03T12:44:29;1.55;;;1.45;;
16294;SDS011;8255;49.560;8.244;2022-08-03T12:46:56;1.67;;;1.58;;
16294;SDS011;8255;49.560;8.244;2022-08-03T12:49:23;1.50;;;1.50;;
16294;SDS011;8255;49.560;8.244;2022-08-03T12:51:56;1.70;;;1.70;;
16294;SDS011;8255;49.560;8.244;2022-08-03T12:54:25;1.63;;;1.63;;
16294;SDS011;8255;49.560;8.244;2022-08-03T12:56:58;1.60;;;1.60;;
16294;SDS011;8255;49.560;8.244;2022-08-03T12:59:26;1.70;;;1.60;;
16294;SDS011;8255;49.560;8.244;2022-08-03T13:01:53;1.63;;;1.50;;
16294;SDS011;8255;49.560;8.244;2022-08-03T13:04:26;1.80;;;1.80;;
16294;SDS011;8255;49.560;8.244;2022-08-03T13:06:56;1.67;;;1.67;;
16294;SDS011;8255;49.560;8.244;2022-08-03T13:09:24;1.80;;;1.67;;
16294;SDS011;8255;49.560;8.244;2022-08-03T13:12:03;1.50;;;1.50;;
16294;SDS011;8255;49.560;8.244;2022-08-03T13:14:29;2.90;;;2.20;;
16294;SDS011;8255;49.560;8.244;2022-08-03T13:16:56;1.50;;;1.50;;
16294;SDS011;8255;49.560;8.244;2022-08-03T13:19:22;4.57;;;1.92;;
16294;SDS011;8255;49.560;8.244;2022-08-03T13:21:48;2.58;;;1.50;;
16294;SDS011;8255;49.560;8.244;2022-08-03T13:24:15;1.63;;;1.50;;
16294;SDS011;8255;49.560;8.244;2022-08-03T13:26:42;1.70;;;1.60;;
16294;SDS011;8255;49.560;8.244;2022-08-03T13:29:09;2.40;;;1.58;;
16294;SDS011;8255;49.560;8.244;2022-08-03T13:31:35;1.80;;;1.70;;
16294;SDS011;8255;49.560;8.244;2022-08-03T13:34:02;1.50;;;1.50;;
16294;SDS011;8255;49.560;8.244;2022-08-03T13:36:28;1.70;;;1.60;;
16294;SDS011;8255;49.560;8.244;2022-08-03T13:38:54;1.63;;;1.38;;
16294;SDS011;8255;49.560;8.244;2022-08-03T13:41:21;1.80;;;1.70;;
16294;SDS011;8255;49.560;8.244;2022-08-03T13:43:48;1.55;;;1.55;;
16294;SDS011;8255;49.560;8.244;2022-08-03T13:46:15;1.40;;;1.40;;
16294;SDS011;8255;49.560;8.244;2022-08-03T13:48:41;1.98;;;1.38;;
16294;SDS011;8255;49.560;8.244;2022-08-03T13:51:08;1.40;;;1.40;;
16294;SDS011;8255;49.560;8.244;2022-08-03T13:53:34;1.45;;;1.45;;
16294;SDS011;8255;49.560;8.244;2022-08-03T13:56:00;1.70;;;1.60;;
16294;SDS011;8255;49.560;8.244;2022-08-03T13:58:27;1.42;;;1.42;;
16294;SDS011;8255;49.560;8.244;2022-08-03T14:00:54;2.55;;;1.75;;
16294;SDS011;8255;49.560;8.244;2022-08-03T14:03:21;1.70;;;1.60;;
16294;SDS011;8255;49.560;8.244;2022-08-03T14:05:47;1.67;;;1.58;;
16294;SDS011;8255;49.560;8.244;2022-08-03T14:08:14;1.40;;;1.40;;
16294;SDS011;8255;49.560;8.244;2022-08-03T14:10:40;1.75;;;1.65;;
16294;SDS011;8255;49.560;8.244;2022-08-03T14:13:08;1.50;;;1.50;;
16294;SDS011;8255;49.560;8.244;2022-08-03T14:15:35;1.73;;;1.63;;
16294;SDS011;8255;49.560;8.244;2022-08-03T14:18:03;1.52;;;1.52;;
16294;SDS011;8255;49.560;8.244;2022-08-03T14:20:29;1.42;;;1.33;;
16294;SDS011;8255;49.560;8.244;2022-08-03T14:22:55;1.40;;;1.40;;
16294;SDS011;8255;49.560;8.244;2022-08-03T14:25:22;1.50;;;1.40;;
16294;SDS011;8255;49.560;8.244;2022-08-03T14:27:48;1.45;;;1.35;;
16294;SDS011;8255;49.560;8.244;2022-08-03T14:30:15;1.58;;;1.50;;
16294;SDS011;8255;49.560;8.244;2022-08-03T14:32:41;1.50;;;1.40;;
16294;SDS011;8255;49.560;8.244;2022-08-03T14:35:09;1.52;;;1.50;;
16294;SDS011;8255;49.560;8.244;2022-08-03T14:37:35;1.50;;;1.50;;
16294;SDS011;8255;49.560;8.244;2022-08-03T14:40:02;1.70;;;1.60;;
16294;SDS011;8255;49.560;8.244;2022-08-03T14:42:28;1.40;;;1.40;;
16294;SDS011;8255;49.560;8.244;2022-08-03T14:44:55;1.38;;;1.38;;
16294;SDS011;8255;49.560;8.244;2022-08-03T14:47:21;1.30;;;1.30;;
16294;SDS011;8255;49.560;8.244;2022-08-03T14:49:47;1.50;;;1.48;;
16294;SDS011;8255;49.560;8.244;2022-08-03T14:52:15;1.35;;;1.35;;
16294;SDS011;8255;49.560;8.244;2022-08-03T14:54:41;1.40;;;1.40;;
16294;SDS011;8255;49.560;8.244;2022-08-03T14:57:08;1.38;;;1.38;;
16294;SDS011;8255;49.560;8.244;2022-08-03T14:59:34;2.08;;;1.33;;
16294;SDS011;8255;49.560;8.244;2022-08-03T15:02:00;1.48;;;1.48;;
16294;SDS011;8255;49.560;8.244;2022-08-03T15:04:27;1.40;;;1.40;;
16294;SDS011;8255;49.560;8.244;2022-08-03T15:06:53;2.53;;;1.60;;
16294;SDS011;8255;49.560;8.244;2022-08-03T15:09:21;1.40;;;1.40;;
16294;SDS011;8255;49.560;8.244;2022-08-03T15:11:47;1.38;;;1.30;;
16294;SDS011;8255;49.560;8.244;2022-08-03T15:14:14;1.15;;;1.15;;
16294;SDS011;8255;49.560;8.244;2022-08-03T15:16:40;1.50;;;1.33;;